Aérodrome :
LOGIN :

S'inscrire | Disclaimer

   EN    FR    IT 

 










Légende :    VFR   VFR Marginal   IFR   IFR Intensif   IFR Très Intensif
Visi : 
Plafond : 
>= 8 km
>= 3000ft
5 à 8 km
1000 à 3000 ft
1500m à 5 km
500 à 1000 ft
800 à 1500m
200 à 500 ft
< 800m
< 200 ft
Symboles :   Orages  Brouillard  Fortes neiges  Fortes précipitations  Vent > 20 kt
SIGMETs :   Divers  Orages  Givrage  Turbulence  Onde Orograph.  Cendres Volcan.






- Altitude de l'aérodrome : 24 ft
- Code IATA : IBZ


LEIB - Ibiza

DERNIER METAR :
  • 011400Z 20010KT 140V240 9999 FEW012 BKN018 17/14 Q1011 NOSIG

METARs EXPIRÉS :
  • 011330Z 22007KT 170V260 9999 FEW012 BKN018 17/13 Q1011 NOSIG
  • 011300Z 21006KT 140V250 9999 FEW012 BKN018 17/13 Q1011 NOSIG
  • 011230Z 21006KT 170V260 9999 FEW012 BKN018 17/13 Q1011 NOSIG
  • 011200Z 22006KT 150V250 9999 FEW012 BKN020 16/13 Q1012 NOSIG

TAF TAF LEIB
Valide du 01 à 15h jusqu'au 02 à 15h UTC


011400Z 0115/0215 22012KT 9999 BKN020 TX17/0212Z TN09/0206Z
PROB40
TEMPO 0115/0117 SHRA FEW010TCU
TEMPO 0120/0215 4000 SHRA FEW010TCU BKN012
BECMG 0122/0124 VRB04KT
PROB40
TEMPO 0200/0211 2000 TSRA FEW010CB
BECMG 0206/0208 33013KT



MET'MAP, la Météo Aéronautique d'un coup d'oeil ! - Copyright ORBIFLY Décembre 2007 - Disclaimer

ORBIFLY MET'MAP TEAM :

Programmation & Développement : Alexandra Zaïnal
Sur une idée originale de : Baudouin d'Aumeries
Assistance à la programmation : Marc-Olivier Méhu
Soutien technique & logistique : Manuel Goepfert

Contact : metmap@orbifly.com




SOURCES & CREDITS :

   NOAA